createdAt,value
2023-05-23T00:01:01.311Z,77.93
2023-05-23T00:02:31.377Z,78.03
2023-05-23T00:04:01.743Z,78.13
2023-05-23T00:05:32.582Z,78.23
2023-05-23T00:07:00.776Z,78.33
2023-05-23T00:08:29.936Z,78.53
2023-05-23T00:10:30.629Z,78.53
2023-05-23T00:13:18.438Z,78.63
2023-05-23T00:14:49.413Z,78.74
2023-05-23T00:16:37.416Z,79.14
2023-05-23T00:22:19.967Z,79.64
2023-05-23T00:24:20.573Z,79.54
2023-05-23T00:25:48.801Z,79.74
2023-05-23T00:28:06.478Z,80.69
2023-05-23T00:34:35.981Z,81.50
2023-05-23T00:36:34.195Z,81.10
2023-05-23T00:40:29.828Z,81.50
2023-05-23T00:44:28.100Z,82.65
2023-05-23T00:46:26.010Z,82.45
2023-05-23T00:54:40.408Z,82.75
2023-05-23T01:03:06.514Z,82.01
2023-05-23T01:21:51.146Z,82.10
2023-05-23T01:26:13.583Z,82.51
2023-05-23T01:31:21.502Z,83.76
2023-05-23T01:32:52.560Z,83.86
2023-05-23T01:35:09.512Z,84.06
2023-05-23T01:37:08.686Z,84.71
2023-05-23T01:40:27.368Z,85.11
2023-05-23T01:44:08.645Z,85.52
2023-05-23T01:51:40.581Z,85.66
2023-05-23T01:53:32.239Z,85.66
2023-05-23T01:55:31.253Z,85.86
2023-05-23T01:59:22.982Z,85.82
2023-05-23T02:00:50.108Z,86.13
2023-05-23T02:05:10.051Z,85.82
2023-05-23T02:08:02.587Z,86.37
2023-05-23T02:12:14.984Z,86.37
2023-05-23T02:15:24.923Z,86.57
2023-05-23T02:24:09.429Z,86.37
2023-05-23T02:25:39.942Z,86.16
2023-05-23T02:34:00.379Z,86.51
2023-05-23T02:38:09.834Z,86.76
2023-05-23T02:39:59.164Z,86.51
2023-05-23T02:41:57.413Z,86.51
2023-05-23T02:43:26.480Z,86.10
2023-05-23T02:47:02.703Z,86.21
2023-05-23T02:49:21.684Z,86.00
2023-05-23T02:50:50.698Z,86.00
2023-05-23T02:53:40.881Z,86.00
2023-05-23T02:55:11.053Z,86.35
2023-05-23T02:57:42.272Z,86.85
2023-05-23T02:59:41.907Z,87.05
2023-05-23T03:03:28.393Z,87.60
2023-05-23T03:05:47.773Z,87.46
2023-05-23T03:09:21.014Z,87.26
2023-05-23T03:12:08.176Z,87.26
2023-05-23T03:14:35.218Z,87.16
2023-05-23T03:21:39.377Z,87.26
2023-05-23T03:25:04.499Z,87.30
2023-05-23T03:31:39.501Z,87.51
2023-05-23T03:33:40.259Z,87.51
2023-05-23T03:36:57.441Z,87.91
2023-05-23T03:39:24.890Z,87.71
2023-05-23T03:44:32.027Z,87.60
2023-05-23T03:46:21.726Z,87.74
2023-05-23T03:49:48.216Z,87.45
2023-05-23T03:57:06.037Z,87.24
2023-05-23T04:00:56.174Z,86.94
2023-05-23T04:04:13.734Z,86.63
2023-05-23T04:05:41.669Z,86.83
2023-05-23T04:06:41.536Z,86.73
2023-05-23T04:07:41.508Z,86.73
2023-05-23T04:09:42.335Z,86.83
2023-05-23T04:16:16.847Z,86.73
2023-05-23T04:20:05.541Z,86.94
2023-05-23T04:38:37.000Z,86.83
2023-05-23T04:41:39.808Z,87.08
2023-05-23T04:47:44.490Z,86.27
2023-05-23T04:53:13.010Z,85.96
2023-05-23T04:56:04.868Z,85.76
2023-05-23T05:02:47.426Z,85.86
2023-05-23T05:05:19.561Z,85.66
2023-05-23T05:08:51.943Z,85.46
2023-05-23T05:10:20.921Z,85.36
2023-05-23T05:11:50.975Z,85.21
2023-05-23T05:15:59.878Z,85.01
2023-05-23T05:18:39.463Z,85.01
2023-05-23T05:26:47.132Z,85.66
2023-05-23T05:30:27.806Z,85.56
2023-05-23T05:33:54.048Z,85.05
2023-05-23T05:36:13.808Z,84.85
2023-05-23T05:37:42.747Z,84.85
2023-05-23T05:39:33.383Z,84.75
2023-05-23T05:42:50.556Z,84.44
2023-05-23T05:44:51.572Z,84.34
2023-05-23T05:46:23.216Z,84.58
2023-05-23T05:47:50.725Z,84.44
2023-05-23T05:49:48.268Z,84.14
2023-05-23T05:51:17.817Z,84.14
2023-05-23T05:53:15.541Z,84.08
2023-05-23T05:55:45.363Z,84.18
2023-05-23T05:58:13.824Z,84.72
2023-05-23T05:59:43.775Z,84.63
2023-05-23T06:01:13.682Z,84.83
2023-05-23T06:04:50.232Z,84.83
2023-05-23T06:06:20.025Z,84.72
2023-05-23T06:07:20.006Z,84.52
2023-05-23T06:08:20.021Z,84.52
2023-05-23T06:11:46.729Z,84.42
2023-05-23T06:13:35.402Z,84.18
2023-05-23T06:15:05.254Z,84.08
2023-05-23T06:16:33.172Z,83.81
2023-05-23T06:18:05.144Z,84.12
2023-05-23T06:20:54.939Z,84.01
2023-05-23T06:23:56.741Z,84.56
2023-05-23T06:29:26.621Z,84.56
2023-05-23T06:32:25.882Z,84.46
2023-05-23T06:34:52.331Z,84.66
2023-05-23T06:36:54.863Z,85.21
2023-05-23T06:41:17.578Z,85.41
2023-05-23T06:45:54.505Z,86.22
2023-05-23T06:48:46.437Z,86.22
2023-05-23T06:52:07.825Z,85.82
2023-05-23T06:55:31.252Z,85.92
2023-05-23T06:57:30.553Z,85.82
2023-05-23T07:00:50.837Z,85.76
2023-05-23T07:02:40.084Z,85.55
2023-05-23T07:05:48.495Z,85.35
2023-05-23T07:08:39.763Z,85.35
2023-05-23T07:09:58.649Z,85.46
2023-05-23T07:10:37.758Z,85.35
2023-05-23T07:11:37.965Z,85.25
2023-05-23T07:13:37.584Z,84.95
2023-05-23T07:15:09.341Z,85.05
2023-05-23T07:20:05.953Z,84.95
2023-05-23T07:25:34.049Z,84.03
2023-05-23T07:27:03.217Z,83.53
2023-05-23T07:28:02.450Z,83.42
2023-05-23T07:29:02.466Z,83.56
2023-05-23T07:30:51.203Z,83.46
2023-05-23T07:32:22.066Z,83.46
2023-05-23T07:33:49.241Z,83.26
2023-05-23T07:35:19.401Z,82.85
2023-05-23T07:36:49.461Z,82.85
2023-05-23T07:38:21.607Z,82.95
2023-05-23T07:41:22.554Z,82.99
2023-05-23T07:43:19.408Z,83.06
2023-05-23T07:49:25.847Z,82.45
2023-05-23T07:50:54.816Z,82.24
2023-05-23T07:52:46.387Z,82.24
2023-05-23T07:56:32.490Z,81.87
2023-05-23T07:59:41.809Z,81.63
2023-05-23T08:02:31.594Z,81.37
2023-05-23T08:06:18.350Z,81.43
2023-05-23T08:07:51.241Z,81.12
2023-05-23T08:11:35.579Z,80.82
2023-05-23T08:14:49.983Z,80.21
2023-05-23T08:18:57.328Z,79.25
2023-05-23T08:20:55.338Z,78.71
2023-05-23T08:27:04.791Z,77.22
2023-05-23T08:28:33.753Z,76.61
2023-05-23T08:30:24.461Z,76.40
2023-05-23T08:34:02.688Z,75.63
2023-05-23T08:38:01.875Z,75.19
2023-05-23T08:40:20.019Z,74.98
2023-05-23T08:44:54.013Z,74.38
2023-05-23T08:52:18.419Z,74.17
2023-05-23T08:56:39.248Z,72.04
2023-05-23T08:58:26.035Z,72.34
2023-05-23T09:04:04.450Z,72.82
2023-05-23T09:06:02.768Z,72.52
2023-05-23T09:08:42.398Z,73.66
2023-05-23T09:10:14.042Z,73.83
2023-05-23T09:11:44.130Z,73.43
2023-05-23T09:16:00.089Z,73.46
2023-05-23T09:17:32.862Z,74.24
2023-05-23T09:19:03.136Z,74.55
2023-05-23T09:20:33.069Z,74.55
2023-05-23T09:24:01.775Z,73.70
2023-05-23T09:31:56.520Z,71.03
2023-05-23T09:34:32.015Z,70.11
2023-05-23T09:36:21.049Z,70.39
2023-05-23T09:37:50.130Z,68.59
2023-05-23T09:42:31.549Z,67.31
2023-05-23T09:44:47.673Z,66.83
2023-05-23T09:49:05.267Z,67.24
2023-05-23T09:52:57.858Z,67.34
2023-05-23T09:54:56.141Z,67.65
2023-05-23T09:56:23.435Z,67.55
2023-05-23T09:57:55.856Z,67.14
2023-05-23T10:04:52.630Z,66.60
2023-05-23T10:06:23.572Z,65.99
2023-05-23T10:09:12.421Z,66.06
2023-05-23T10:11:11.469Z,65.56
2023-05-23T10:17:14.429Z,63.47
2023-05-23T10:19:04.254Z,61.99
2023-05-23T10:23:07.522Z,60.65
2023-05-23T10:32:14.993Z,60.61
2023-05-23T10:36:13.849Z,59.74
2023-05-23T10:45:53.129Z,56.48
2023-05-23T10:47:22.172Z,55.84
2023-05-23T10:54:28.797Z,54.76
2023-05-23T10:58:47.814Z,55.77
2023-05-23T11:00:14.926Z,56.48
2023-05-23T11:03:35.006Z,55.16
2023-05-23T11:06:04.490Z,55.87
2023-05-23T11:07:34.479Z,55.16
2023-05-23T11:09:06.303Z,55.26
2023-05-23T11:13:40.526Z,54.00
2023-05-23T11:18:10.130Z,53.42
2023-05-23T11:21:10.482Z,53.50
2023-05-23T11:22:10.494Z,53.50
2023-05-23T11:23:10.428Z,53.30
2023-05-23T11:24:41.329Z,53.70
2023-05-23T11:32:27.532Z,53.63
2023-05-23T11:34:58.264Z,51.99
2023-05-23T11:43:41.495Z,50.60
2023-05-23T11:46:49.275Z,49.88
2023-05-23T11:49:18.045Z,50.08
2023-05-23T11:52:07.323Z,50.38
2023-05-23T11:55:43.322Z,50.76
2023-05-23T11:57:43.935Z,50.18
2023-05-23T12:00:05.414Z,50.40
2023-05-23T12:05:26.936Z,50.98
2023-05-23T12:10:15.681Z,47.90
2023-05-23T12:11:45.563Z,47.09
2023-05-23T12:14:50.674Z,47.32
2023-05-23T12:17:44.028Z,47.64
2023-05-23T12:26:08.064Z,47.54
2023-05-23T12:27:57.827Z,48.44
2023-05-23T12:30:45.246Z,48.02
2023-05-23T12:33:14.757Z,48.85
2023-05-23T12:37:19.802Z,48.93
2023-05-23T12:39:34.970Z,46.07
2023-05-23T12:42:24.456Z,45.47
2023-05-23T12:43:53.433Z,44.95
2023-05-23T12:46:50.671Z,46.17
2023-05-23T12:49:09.211Z,46.09
2023-05-23T12:50:57.720Z,46.41
2023-05-23T12:52:27.648Z,47.52
2023-05-23T12:54:26.696Z,47.47
2023-05-23T12:56:26.302Z,46.67
2023-05-23T13:01:01.449Z,46.85
2023-05-23T13:04:08.003Z,47.67
2023-05-23T13:11:07.157Z,48.65
2023-05-23T13:16:01.985Z,48.65
2023-05-23T13:24:36.585Z,48.52
2023-05-23T13:26:55.451Z,48.02
2023-05-23T13:30:13.975Z,48.88
2023-05-23T13:32:41.858Z,46.75
2023-05-23T13:36:30.277Z,47.27
2023-05-23T13:38:26.985Z,47.90
2023-05-23T13:41:48.203Z,47.39
2023-05-23T13:47:30.855Z,46.83
2023-05-23T13:49:00.849Z,45.70
2023-05-23T13:51:20.956Z,43.98
2023-05-23T13:53:18.229Z,43.72
2023-05-23T13:58:07.755Z,46.67
2023-05-23T14:06:58.525Z,45.59
2023-05-23T14:09:19.434Z,46.92
2023-05-23T14:13:37.452Z,48.44
2023-05-23T14:17:30.567Z,47.72
2023-05-23T14:20:29.010Z,45.89
2023-05-23T14:23:27.109Z,46.15
2023-05-23T14:25:45.791Z,43.84
2023-05-23T14:29:02.596Z,45.37
2023-05-23T14:30:33.668Z,45.04
2023-05-23T14:32:52.800Z,45.54
2023-05-23T14:36:20.380Z,44.96
2023-05-23T14:39:09.074Z,43.80
2023-05-23T14:41:08.248Z,44.85
2023-05-23T14:42:36.202Z,44.87
2023-05-23T14:44:53.851Z,46.08
2023-05-23T14:47:21.920Z,46.66
2023-05-23T14:49:12.596Z,45.15
2023-05-23T14:50:40.756Z,45.25
2023-05-23T14:52:41.084Z,45.45
2023-05-23T14:55:59.752Z,44.93
2023-05-23T14:57:59.848Z,45.10
2023-05-23T14:59:29.757Z,44.91
2023-05-23T15:02:28.811Z,44.93
2023-05-23T15:04:51.940Z,45.57
2023-05-23T15:09:41.412Z,46.36
2023-05-23T15:11:39.932Z,44.71
2023-05-23T15:13:10.780Z,44.51
2023-05-23T15:17:33.376Z,44.34
2023-05-23T15:19:35.568Z,42.96
2023-05-23T15:21:32.873Z,43.48
2023-05-23T15:24:41.507Z,43.96
2023-05-23T15:27:18.897Z,40.57
2023-05-23T15:32:37.200Z,43.00
2023-05-23T15:35:55.395Z,42.69
2023-05-23T15:37:24.365Z,44.20
2023-05-23T15:39:59.560Z,44.53
2023-05-23T15:41:47.333Z,44.71
2023-05-23T15:46:07.420Z,44.81
2023-05-23T15:49:47.350Z,45.87
2023-05-23T15:51:48.043Z,46.80
2023-05-23T15:53:15.989Z,47.28
2023-05-23T15:57:52.409Z,47.08
2023-05-23T16:01:01.527Z,45.07
2023-05-23T16:04:19.267Z,45.47
2023-05-23T16:05:51.079Z,45.67
2023-05-23T16:12:03.080Z,44.15
2023-05-23T16:13:32.938Z,44.24
2023-05-23T16:15:32.802Z,43.64
2023-05-23T16:17:50.460Z,44.65
2023-05-23T16:19:19.459Z,44.53
2023-05-23T16:20:49.396Z,45.03
2023-05-23T16:22:22.596Z,44.73
2023-05-23T16:24:54.060Z,45.13
2023-05-23T16:27:56.272Z,44.59
2023-05-23T16:29:26.155Z,45.12
2023-05-23T16:31:14.884Z,45.92
2023-05-23T16:33:14.906Z,46.02
2023-05-23T16:39:09.350Z,45.32
2023-05-23T16:41:09.319Z,45.59
2023-05-23T16:43:58.914Z,44.49
2023-05-23T16:45:57.823Z,43.99
2023-05-23T16:47:58.402Z,44.79
2023-05-23T16:51:55.802Z,44.87
2023-05-23T16:53:25.783Z,44.97
2023-05-23T16:54:54.693Z,44.37
2023-05-23T16:58:52.774Z,45.00
2023-05-23T17:00:51.110Z,45.79
2023-05-23T17:02:49.943Z,45.50
2023-05-23T17:04:49.874Z,45.57
2023-05-23T17:06:21.756Z,44.47
2023-05-23T17:07:52.940Z,44.27
2023-05-23T17:13:02.222Z,44.61
2023-05-23T17:16:27.611Z,44.41
2023-05-23T17:17:59.427Z,45.19
2023-05-23T17:20:48.473Z,44.71
2023-05-23T17:22:48.190Z,44.45
2023-05-23T17:28:27.678Z,46.19
2023-05-23T17:32:14.591Z,46.81
2023-05-23T17:34:45.308Z,46.71
2023-05-23T17:36:13.915Z,46.21
2023-05-23T17:38:14.658Z,46.71
2023-05-23T17:43:41.885Z,46.51
2023-05-23T17:49:44.134Z,46.61
2023-05-23T17:52:16.043Z,46.71
2023-05-23T17:55:57.025Z,46.51
2023-05-23T17:58:08.952Z,46.03
2023-05-23T18:00:07.983Z,46.66
2023-05-23T18:01:37.091Z,46.17
2023-05-23T18:04:05.604Z,46.17
2023-05-23T18:05:58.610Z,46.58
2023-05-23T18:08:40.458Z,46.91
2023-05-23T18:11:05.719Z,46.91
2023-05-23T18:13:06.731Z,47.31
2023-05-23T18:14:34.784Z,47.11
2023-05-23T18:17:30.038Z,47.43
2023-05-23T18:19:28.005Z,47.83
2023-05-23T18:22:28.187Z,48.03
2023-05-23T18:25:38.217Z,47.43
2023-05-23T18:27:07.816Z,47.66
2023-05-23T18:32:10.539Z,47.67
2023-05-23T18:33:42.851Z,47.47
2023-05-23T18:35:58.658Z,48.82
2023-05-23T18:40:43.930Z,47.80
2023-05-23T18:42:13.660Z,48.00
2023-05-23T18:43:45.073Z,48.61
2023-05-23T18:46:43.841Z,48.82
2023-05-23T18:49:44.969Z,49.32
2023-05-23T18:55:03.912Z,49.44
2023-05-23T18:57:50.645Z,49.37
2023-05-23T18:59:53.608Z,49.67
2023-05-23T19:07:51.501Z,50.40
2023-05-23T19:11:51.192Z,50.81
2023-05-23T19:14:47.024Z,51.01
2023-05-23T19:17:15.146Z,51.54
2023-05-23T19:18:44.967Z,52.05
2023-05-23T19:20:19.559Z,52.15
2023-05-23T19:24:25.170Z,52.38
2023-05-23T19:26:28.325Z,52.38
2023-05-23T19:28:28.007Z,52.48
2023-05-23T19:37:52.924Z,52.79
2023-05-23T19:40:25.211Z,52.91
2023-05-23T19:41:53.332Z,53.02
2023-05-23T19:44:43.952Z,53.42
2023-05-23T19:47:36.735Z,53.83
2023-05-23T19:50:37.437Z,54.05
2023-05-23T19:53:24.501Z,54.57
2023-05-23T19:54:52.084Z,54.59
2023-05-23T19:56:22.467Z,54.79
2023-05-23T19:57:54.525Z,54.90
2023-05-23T20:01:12.675Z,55.40
2023-05-23T20:05:23.728Z,55.81
2023-05-23T20:06:23.640Z,55.71
2023-05-23T20:07:23.619Z,55.81
2023-05-23T20:08:23.533Z,55.81
2023-05-23T20:13:53.350Z,56.32
2023-05-23T20:18:03.217Z,56.65
2023-05-23T20:19:32.226Z,56.55
2023-05-23T20:22:47.477Z,56.85
2023-05-23T20:26:06.363Z,57.16
2023-05-23T20:28:05.345Z,57.06
2023-05-23T20:29:33.934Z,57.26
2023-05-23T20:32:57.630Z,57.69
2023-05-23T20:35:31.035Z,57.69
2023-05-23T20:39:11.048Z,58.10
2023-05-23T20:41:43.973Z,58.51
2023-05-23T20:43:46.778Z,58.40
2023-05-23T20:45:37.763Z,58.51
2023-05-23T20:47:59.459Z,58.51
2023-05-23T20:49:30.898Z,58.92
2023-05-23T20:50:59.894Z,59.01
2023-05-23T20:52:49.073Z,59.01
2023-05-23T20:54:50.112Z,59.01
2023-05-23T21:00:53.708Z,59.25
2023-05-23T21:02:24.557Z,59.14
2023-05-23T21:04:26.471Z,59.55
2023-05-23T21:09:59.291Z,60.39
2023-05-23T21:15:00.370Z,60.91
2023-05-23T21:17:53.553Z,60.91
2023-05-23T21:21:35.970Z,61.34
2023-05-23T21:24:58.610Z,61.54
2023-05-23T21:29:25.159Z,61.95
2023-05-23T21:31:17.189Z,61.95
2023-05-23T21:34:24.169Z,62.36
2023-05-23T21:35:52.846Z,62.46
2023-05-23T21:37:52.700Z,62.59
2023-05-23T21:40:46.341Z,62.80
2023-05-23T21:43:48.391Z,63.10
2023-05-23T21:45:20.739Z,63.31
2023-05-23T21:49:39.317Z,63.51
2023-05-23T21:51:29.453Z,63.61
2023-05-23T21:54:05.627Z,64.02
2023-05-23T21:56:19.520Z,64.12
2023-05-23T21:57:53.297Z,64.32
2023-05-23T22:04:24.050Z,64.46
2023-05-23T22:10:26.390Z,64.43
2023-05-23T22:14:04.136Z,64.46
2023-05-23T22:15:55.944Z,64.56
2023-05-23T22:20:52.139Z,64.76
2023-05-23T22:24:05.288Z,64.87
2023-05-23T22:28:29.501Z,65.17
2023-05-23T22:33:07.960Z,65.28
2023-05-23T22:34:40.895Z,65.37
2023-05-23T22:36:27.547Z,65.71
2023-05-23T22:38:26.283Z,65.71
2023-05-23T22:40:28.179Z,65.81
2023-05-23T22:42:19.342Z,66.02
2023-05-23T22:51:14.841Z,66.83
2023-05-23T22:56:06.774Z,67.04
2023-05-23T22:58:52.130Z,67.27
2023-05-23T23:00:46.621Z,67.38
2023-05-23T23:02:14.684Z,67.48
2023-05-23T23:04:16.345Z,67.68
2023-05-23T23:05:44.360Z,67.68
2023-05-23T23:07:16.021Z,67.68
2023-05-23T23:08:44.125Z,67.79
2023-05-23T23:10:13.376Z,67.89
2023-05-23T23:14:53.914Z,68.19
2023-05-23T23:16:22.310Z,68.19
2023-05-23T23:20:12.306Z,68.40
2023-05-23T23:21:41.974Z,68.60
2023-05-23T23:26:21.436Z,68.80
2023-05-23T23:28:40.212Z,69.04
2023-05-23T23:35:01.553Z,69.86
2023-05-23T23:36:59.007Z,70.06
2023-05-23T23:40:01.143Z,69.96
2023-05-23T23:41:01.103Z,70.06
2023-05-23T23:42:02.989Z,70.06
2023-05-23T23:44:21.291Z,70.17
2023-05-23T23:51:06.445Z,70.47
2023-05-23T23:53:02.683Z,70.27
2023-05-23T23:56:00.150Z,70.30
2023-05-23T23:57:28.770Z,70.30
